Time;durP1;ratioP1;P1;durP2;ratioP2;P2;SDS_P1;SDS_P2;PMS_P1;PMS_P2;Temp;Humidity;BMP_temperature;BMP_pressure;BME280_temperature;BME280_humidity;BME280_pressure;Samples;Min_cycle;Max_cycle;Signal;HPM_P1;HPM_P2
2023/02/01 00:00:34;;;;;;;4.82;3.55;;;19.20;67.30;;;;;;5040910;28;20200;-77
2023/02/01 00:03:01;;;;;;;2.90;2.60;;;19.20;67.30;;;;;;5037901;28;20285;-77
2023/02/01 00:05:28;;;;;;;4.93;3.20;;;19.20;67.30;;;;;;5037477;28;20215;-77
2023/02/01 00:07:54;;;;;;;5.70;2.90;;;19.20;67.30;;;;;;5036731;28;20211;-77
2023/02/01 00:10:21;;;;;;;4.35;3.17;;;19.20;67.40;;;;;;5035203;28;20912;-77
2023/02/01 00:12:49;;;;;;;3.78;3.40;;;19.20;67.40;;;;;;5037821;28;20196;-77
2023/02/01 00:15:16;;;;;;;5.15;3.35;;;19.20;67.40;;;;;;5039588;28;20674;-77
2023/02/01 00:17:43;;;;;;;3.80;3.50;;;19.20;67.40;;;;;;5036849;28;20659;-78
2023/02/01 00:20:11;;;;;;;4.28;3.00;;;19.10;67.30;;;;;;5039541;28;20690;-78
2023/02/01 00:22:37;;;;;;;6.00;3.38;;;19.10;67.30;;;;;;5039878;28;20226;-78
2023/02/01 00:25:05;;;;;;;4.75;2.92;;;19.10;67.40;;;;;;5038127;28;20258;-78
2023/02/01 00:27:32;;;;;;;4.90;3.13;;;19.10;67.30;;;;;;5037532;28;20207;-79
2023/02/01 00:30:00;;;;;;;3.30;2.47;;;19.10;67.30;;;;;;5039492;28;20199;-78
2023/02/01 00:32:26;;;;;;;4.15;3.00;;;19.10;67.40;;;;;;5039989;28;20560;-78
2023/02/01 00:34:53;;;;;;;4.03;3.45;;;19.10;67.40;;;;;;5040462;28;20194;-77
2023/02/01 00:37:20;;;;;;;4.30;2.72;;;19.00;67.30;;;;;;5037467;28;20203;-78
2023/02/01 00:39:47;;;;;;;3.72;3.10;;;19.00;67.30;;;;;;5037819;28;20298;-77
2023/02/01 00:42:13;;;;;;;3.28;2.97;;;19.00;67.30;;;;;;5038013;28;20214;-78
2023/02/01 00:44:40;;;;;;;3.25;2.88;;;19.00;67.30;;;;;;5035732;28;20203;-78
2023/02/01 00:47:08;;;;;;;3.90;3.05;;;19.00;67.40;;;;;;5038719;28;20230;-78
2023/02/01 00:49:35;;;;;;;6.00;3.10;;;19.00;67.40;;;;;;5037130;28;20658;-78
2023/02/01 00:52:01;;;;;;;4.00;3.00;;;19.00;67.40;;;;;;5037061;28;20217;-78
2023/02/01 00:54:28;;;;;;;5.47;3.17;;;19.00;67.40;;;;;;5036272;28;20670;-78
2023/02/01 00:56:55;;;;;;;5.18;3.25;;;18.90;67.30;;;;;;5037070;28;20201;-78
2023/02/01 00:59:21;;;;;;;4.45;3.00;;;18.90;67.30;;;;;;5037931;28;20204;-77
2023/02/01 01:01:48;;;;;;;4.18;2.92;;;18.90;67.30;;;;;;5038122;28;20212;-77
2023/02/01 01:04:16;;;;;;;5.13;2.88;;;18.90;67.30;;;;;;5036338;28;20203;-77
2023/02/01 01:06:43;;;;;;;4.63;3.58;;;18.90;67.30;;;;;;5037417;28;20203;-77
2023/02/01 01:09:11;;;;;;;3.45;2.72;;;18.90;67.40;;;;;;5034184;28;20205;-77
2023/02/01 01:11:39;;;;;;;4.97;3.30;;;18.90;67.30;;;;;;5036084;28;20196;-79
2023/02/01 01:14:07;;;;;;;4.25;3.33;;;18.90;67.50;;;;;;5036192;28;20197;-76
2023/02/01 01:16:34;;;;;;;3.40;2.72;;;18.80;67.30;;;;;;5035476;28;20206;-78
2023/02/01 01:19:01;;;;;;;2.95;2.42;;;18.80;67.30;;;;;;5032520;28;20202;-77
2023/02/01 01:21:30;;;;;;;5.65;2.42;;;18.80;67.30;;;;;;5036609;28;20215;-77
2023/02/01 01:23:57;;;;;;;3.05;2.75;;;18.80;67.30;;;;;;5035865;28;20207;-78
2023/02/01 01:26:26;;;;;;;4.90;3.25;;;18.80;67.30;;;;;;5037211;28;20195;-76
2023/02/01 01:28:53;;;;;;;6.85;3.05;;;18.80;67.30;;;;;;5035474;28;20210;-78
2023/02/01 01:31:21;;;;;;;3.10;2.13;;;18.80;67.30;;;;;;5037609;28;20200;-78
2023/02/01 01:33:51;;;;;;;3.85;2.90;;;18.80;67.30;;;;;;5036727;28;20207;-78
2023/02/01 01:36:18;;;;;;;4.57;3.10;;;18.80;67.30;;;;;;5038485;28;20675;-77
2023/02/01 01:38:46;;;;;;;3.28;2.55;;;18.80;68.10;;;;;;5035259;28;20222;-77
2023/02/01 01:41:16;;;;;;;4.32;2.63;;;18.70;67.30;;;;;;5034922;28;20206;-77
2023/02/01 01:43:53;;;;;;;3.50;2.40;;;18.80;67.40;;;;;;5036966;28;20211;-77
2023/02/01 01:46:21;;;;;;;3.20;2.38;;;18.70;67.30;;;;;;5036618;28;20291;-77
2023/02/01 01:48:53;;;;;;;3.75;3.00;;;18.70;67.30;;;;;;5034644;28;20204;-77
2023/02/01 01:51:24;;;;;;;4.28;2.90;;;18.70;67.30;;;;;;5039086;28;20223;-77
2023/02/01 01:53:59;;;;;;;3.97;2.83;;;18.70;67.30;;;;;;5034378;28;20203;-77
2023/02/01 01:56:27;;;;;;;4.18;2.88;;;18.70;67.30;;;;;;5034041;28;20787;-78
2023/02/01 01:58:55;;;;;;;3.40;2.70;;;18.60;67.30;;;;;;5033547;28;20199;-77
2023/02/01 02:01:22;;;;;;;3.30;2.83;;;18.70;67.30;;;;;;5033559;28;20214;-77
2023/02/01 02:03:49;;;;;;;4.05;2.60;;;18.70;67.30;;;;;;5037567;28;20215;-77
2023/02/01 02:06:23;;;;;;;2.63;2.42;;;18.70;67.40;;;;;;5037021;28;20552;-77
2023/02/01 02:08:49;;;;;;;2.65;2.45;;;18.60;67.30;;;;;;5033538;28;20199;-77
2023/02/01 02:11:18;;;;;;;4.97;2.95;;;18.60;67.30;;;;;;5035814;28;20217;-77
2023/02/01 02:13:51;;;;;;;5.38;3.60;;;18.60;67.30;;;;;;5032653;28;20206;-78
2023/02/01 02:16:32;;;;;;;4.90;2.97;;;18.60;67.30;;;;;;5034561;28;20211;-77
2023/02/01 02:19:21;;;;;;;3.70;2.60;;;18.60;67.30;;;;;;5036447;28;20207;-77
2023/02/01 02:22:06;;;;;;;2.50;2.30;;;18.60;67.40;;;;;;5015243;28;20724;-77
2023/02/01 02:24:51;;;;;;;2.85;2.28;;;18.50;67.20;;;;;;5036111;28;20207;-78
2023/02/01 02:27:26;;;;;;;3.95;2.70;;;18.50;67.30;;;;;;5036350;28;20212;-77
2023/02/01 02:30:28;;;;;;;3.15;2.30;;;18.60;67.30;;;;;;5036748;28;20325;-78
2023/02/01 02:33:25;;;;;;;3.55;2.85;;;18.50;67.20;;;;;;5036945;28;20218;-77
2023/02/01 02:36:00;;;;;;;3.47;2.63;;;18.50;67.30;;;;;;5037722;28;20219;-77
2023/02/01 02:38:33;;;;;;;3.42;2.47;;;18.50;67.30;;;;;;5036346;28;20198;-77
2023/02/01 02:41:09;;;;;;;3.53;2.42;;;18.50;67.30;;;;;;5036555;28;20196;-77
2023/02/01 02:49:29;;;;;;;2.83;2.63;;;18.40;67.10;;;;;;5034678;28;20214;-78
2023/02/01 02:54:48;;;;;;;4.35;3.05;;;18.40;67.10;;;;;;5035831;28;20218;-77
2023/02/01 03:05:43;;;;;;;3.70;3.22;;;18.40;67.10;;;;;;5035650;28;20258;-77
2023/02/01 03:08:14;;;;;;;3.47;2.28;;;18.40;67.20;;;;;;5035704;28;20688;-78
2023/02/01 03:10:54;;;;;;;2.40;2.20;;;18.40;67.20;;;;;;5039546;28;20589;-77
2023/02/01 03:13:28;;;;;;;3.40;2.25;;;18.40;67.30;;;;;;5038904;28;20669;-77
2023/02/01 03:16:02;;;;;;;3.53;2.70;;;18.30;67.10;;;;;;5039300;28;20198;-78
2023/02/01 03:18:33;;;;;;;2.50;2.30;;;18.40;67.20;;;;;;5038787;28;20693;-77
2023/02/01 03:21:05;;;;;;;3.85;3.13;;;18.30;67.10;;;;;;5039714;28;20202;-76
2023/02/01 03:23:34;;;;;;;3.13;2.88;;;18.30;67.10;;;;;;5039893;28;20561;-76
2023/02/01 03:26:02;;;;;;;2.80;2.60;;;18.30;67.90;;;;;;5039207;28;20241;-77
2023/02/01 03:28:33;;;;;;;2.53;2.25;;;18.30;67.10;;;;;;5038448;28;20217;-77
2023/02/01 03:31:01;;;;;;;3.53;2.40;;;18.30;67.10;;;;;;5041094;28;20210;-77
2023/02/01 03:33:29;;;;;;;2.92;2.25;;;18.30;67.10;;;;;;5040533;28;20641;-77
2023/02/01 03:36:06;;;;;;;4.13;2.28;;;18.30;67.10;;;;;;5039592;28;20206;-77
2023/02/01 03:38:39;;;;;;;3.50;2.95;;;18.30;67.20;;;;;;5038670;28;20206;-77
2023/02/01 03:41:12;;;;;;;4.50;2.72;;;18.30;67.20;;;;;;5039277;28;20214;-77
2023/02/01 03:43:48;;;;;;;3.00;2.35;;;18.30;67.20;;;;;;5038396;28;20226;-77
2023/02/01 03:46:21;;;;;;;3.95;1.90;;;18.20;67.00;;;;;;5040088;28;20214;-76
2023/02/01 03:48:49;;;;;;;3.83;2.38;;;18.20;67.00;;;;;;5038688;28;20209;-77
2023/02/01 03:51:20;;;;;;;3.53;3.00;;;18.20;67.10;;;;;;5040443;28;20683;-77
2023/02/01 03:53:48;;;;;;;4.15;2.38;;;18.20;67.00;;;;;;5036159;28;20200;-77
2023/02/01 03:56:16;;;;;;;2.50;1.80;;;18.20;67.00;;;;;;5038741;28;20962;-76
2023/02/01 03:58:57;;;;;;;2.80;2.53;;;18.20;67.10;;;;;;5038737;28;20206;-77
2023/02/01 04:01:24;;;;;;;3.60;2.08;;;18.20;67.00;;;;;;5039016;28;20283;-77
2023/02/01 04:03:51;;;;;;;2.65;2.13;;;18.20;67.00;;;;;;5038876;28;20220;-77
2023/02/01 04:06:19;;;;;;;3.40;2.65;;;18.20;67.00;;;;;;5037727;28;20294;-77
2023/02/01 04:08:46;;;;;;;3.88;2.50;;;18.20;67.00;;;;;;5036321;28;20204;-77
2023/02/01 04:11:13;;;;;;;2.25;1.92;;;18.10;66.90;;;;;;5036608;28;20204;-76
2023/02/01 04:13:40;;;;;;;2.78;1.98;;;18.10;66.90;;;;;;5037697;28;20205;-76
2023/02/01 04:16:07;;;;;;;3.58;2.72;;;18.20;67.10;;;;;;5039143;28;20192;-77
2023/02/01 04:18:34;;;;;;;3.38;2.25;;;18.10;66.90;;;;;;5039240;28;20207;-77
2023/02/01 04:21:01;;;;;;;2.88;2.35;;;18.10;67.00;;;;;;5039421;28;20585;-77
2023/02/01 04:23:31;;;;;;;2.40;1.67;;;18.10;67.00;;;;;;5040356;28;20569;-76
2023/02/01 04:26:00;;;;;;;2.67;2.10;;;18.10;66.90;;;;;;5039093;28;20505;-77
2023/02/01 04:28:27;;;;;;;2.55;2.35;;;18.10;67.00;;;;;;5038384;28;20261;-75
2023/02/01 04:30:53;;;;;;;3.17;2.00;;;18.10;66.90;;;;;;5040390;28;20199;-77
2023/02/01 04:33:20;;;;;;;4.53;2.80;;;18.10;66.90;;;;;;5038739;28;20192;-77
2023/02/01 04:35:47;;;;;;;3.42;1.90;;;18.00;66.80;;;;;;5038843;28;20210;-76
2023/02/01 04:38:14;;;;;;;3.30;2.00;;;18.00;66.80;;;;;;5038705;28;20200;-77
2023/02/01 04:40:42;;;;;;;2.72;2.22;;;18.00;66.80;;;;;;5039459;28;20207;-77
2023/02/01 04:43:09;;;;;;;2.83;2.50;;;18.00;66.80;;;;;;5040602;28;20590;-78
2023/02/01 04:45:36;;;;;;;2.13;1.90;;;18.00;66.80;;;;;;5035856;28;20210;-77
2023/02/01 04:48:02;;;;;;;3.03;2.72;;;18.00;66.80;;;;;;5035702;28;20670;-77
2023/02/01 04:50:29;;;;;;;3.17;2.28;;;18.00;66.80;;;;;;5037515;28;20271;-77
2023/02/01 04:52:56;;;;;;;4.60;2.00;;;18.00;66.80;;;;;;5037562;28;20221;-77
2023/02/01 04:55:23;;;;;;;2.47;2.25;;;18.00;66.80;;;;;;5037255;28;20686;-76
2023/02/01 04:57:51;;;;;;;2.70;2.20;;;18.00;66.80;;;;;;5037425;28;20217;-77
2023/02/01 05:00:18;;;;;;;4.65;2.65;;;18.00;66.80;;;;;;5038466;28;20584;-77
2023/02/01 05:02:45;;;;;;;2.30;1.85;;;18.00;66.80;;;;;;5040514;28;20249;-77
2023/02/01 05:05:11;;;;;;;3.00;1.98;;;18.00;66.80;;;;;;5038681;28;20297;-77
2023/02/01 05:07:38;;;;;;;3.00;2.15;;;18.00;66.80;;;;;;5041208;28;20201;-77
2023/02/01 05:10:05;;;;;;;2.97;2.58;;;18.00;66.80;;;;;;5035059;28;20678;-78
2023/02/01 05:15:18;;;;;;;1.98;1.77;;;17.90;66.70;;;;;;5036841;28;20732;-77
2023/02/01 05:17:44;;;;;;;3.45;2.53;;;18.00;66.80;;;;;;5036283;28;21940;-77
2023/02/01 05:20:12;;;;;;;3.58;2.50;;;17.90;66.60;;;;;;5035714;28;20568;-77
2023/02/01 05:22:38;;;;;;;2.65;2.33;;;17.90;66.70;;;;;;5036764;28;20233;-77
2023/02/01 05:25:06;;;;;;;2.47;2.13;;;17.90;66.60;;;;;;5037289;28;20577;-77
2023/02/01 05:27:32;;;;;;;3.22;2.25;;;17.90;66.70;;;;;;5036687;28;20226;-77
2023/02/01 05:29:59;;;;;;;2.80;2.10;;;17.90;66.60;;;;;;5036513;28;20205;-77
2023/02/01 05:32:27;;;;;;;2.85;1.98;;;17.90;66.60;;;;;;5036453;28;20206;-77
2023/02/01 05:34:54;;;;;;;2.60;1.85;;;17.90;66.60;;;;;;5036754;28;20209;-77
2023/02/01 05:37:21;;;;;;;2.40;1.75;;;17.90;67.40;;;;;;5035345;28;20207;-76
2023/02/01 05:39:47;;;;;;;2.90;2.10;;;17.90;66.60;;;;;;5036961;28;20203;-76
2023/02/01 05:42:14;;;;;;;4.00;2.42;;;17.90;66.60;;;;;;5036931;28;20198;-77
2023/02/01 05:44:41;;;;;;;3.85;2.30;;;17.90;66.60;;;;;;5036881;28;20680;-77
2023/02/01 05:47:07;;;;;;;3.08;2.50;;;17.80;66.40;;;;;;5037637;28;20205;-77
2023/02/01 05:49:36;;;;;;;3.30;2.17;;;17.90;66.60;;;;;;5038471;28;20630;-76
2023/02/01 05:52:03;;;;;;;2.72;2.30;;;17.80;66.40;;;;;;5039215;28;20223;-78
2023/02/01 05:54:30;;;;;;;2.70;2.10;;;17.80;66.40;;;;;;5040270;28;20191;-77
2023/02/01 05:56:56;;;;;;;3.08;2.20;;;17.80;66.50;;;;;;5038144;28;20663;-77
2023/02/01 05:59:23;;;;;;;3.00;1.92;;;17.80;66.50;;;;;;5038388;28;20910;-77
2023/02/01 06:01:50;;;;;;;2.00;1.80;;;17.80;66.40;;;;;;5038680;28;20210;-78
2023/02/01 06:04:17;;;;;;;2.60;2.05;;;17.80;66.40;;;;;;5034777;28;20223;-77
2023/02/01 06:06:45;;;;;;;3.50;2.28;;;17.80;66.40;;;;;;5037870;28;20675;-78
2023/02/01 06:09:11;;;;;;;2.42;2.10;;;17.80;66.40;;;;;;5035816;28;20214;-78
2023/02/01 06:11:38;;;;;;;2.53;2.20;;;17.80;66.40;;;;;;5038230;28;20204;-75
2023/02/01 06:14:07;;;;;;;2.95;2.05;;;17.80;66.40;;;;;;5034904;28;20210;-78
2023/02/01 06:16:34;;;;;;;2.55;1.90;;;17.80;66.40;;;;;;5036298;28;20205;-77
2023/02/01 06:19:01;;;;;;;2.55;2.00;;;17.70;66.30;;;;;;5036603;28;21016;-77
2023/02/01 06:21:27;;;;;;;2.22;1.80;;;17.80;66.40;;;;;;5038412;28;20433;-77
2023/02/01 06:23:57;;;;;;;2.83;2.22;;;17.70;66.30;;;;;;5038135;28;20693;-77
2023/02/01 06:26:24;;;;;;;3.42;2.05;;;17.70;66.30;;;;;;5037047;28;20205;-77
2023/02/01 06:28:51;;;;;;;2.10;1.60;;;17.70;66.30;;;;;;5035900;28;20199;-78
2023/02/01 06:31:17;;;;;;;3.30;1.90;;;17.70;66.30;;;;;;5036802;28;20373;-78
2023/02/01 06:33:45;;;;;;;2.28;1.77;;;17.70;66.30;;;;;;5038620;28;20203;-77
2023/02/01 06:36:15;;;;;;;2.17;1.83;;;17.70;66.30;;;;;;5037238;28;20206;-78
2023/02/01 06:38:42;;;;;;;2.90;1.70;;;17.70;66.30;;;;;;5037113;28;20209;-75
2023/02/01 06:41:11;;;;;;;3.65;2.45;;;17.70;66.20;;;;;;5037140;28;20203;-78
2023/02/01 06:43:38;;;;;;;2.40;2.17;;;17.70;66.20;;;;;;5039540;28;20592;-78
2023/02/01 06:46:06;;;;;;;2.85;1.75;;;17.80;66.20;;;;;;5038757;28;20247;-78
2023/02/01 06:48:33;;;;;;;2.20;1.98;;;17.80;66.10;;;;;;5039201;28;20206;-76
2023/02/01 06:51:00;;;;;;;4.30;2.20;;;17.80;65.90;;;;;;5040514;28;20211;-78
2023/02/01 06:53:27;;;;;;;2.35;1.75;;;17.90;65.90;;;;;;5039032;28;20197;-78
2023/02/01 06:55:55;;;;;;;2.97;2.10;;;17.90;65.70;;;;;;5037954;28;20206;-78
2023/02/01 06:58:24;;;;;;;2.05;1.85;;;17.90;65.60;;;;;;5040920;28;20199;-76
2023/02/01 07:00:53;;;;;;;5.28;2.55;;;18.00;65.70;;;;;;5038266;28;20206;-78
2023/02/01 07:03:20;;;;;;;3.53;2.05;;;18.00;65.70;;;;;;5038745;28;20220;-76
2023/02/01 07:05:47;;;;;;;1.67;1.50;;;18.00;65.80;;;;;;5039425;28;20654;-78
2023/02/01 07:08:14;;;;;;;2.40;1.75;;;18.00;65.80;;;;;;5040705;28;20598;-77
2023/02/01 07:10:40;;;;;;;2.20;1.80;;;18.10;66.00;;;;;;5038500;28;20219;-77
2023/02/01 07:13:07;;;;;;;3.13;1.92;;;18.10;66.00;;;;;;5040221;28;20202;-76
2023/02/01 07:15:35;;;;;;;2.72;1.85;;;18.10;66.10;;;;;;5039745;28;20299;-78
2023/02/01 07:18:02;;;;;;;1.92;1.60;;;18.20;66.30;;;;;;5039502;28;20257;-77
2023/02/01 07:20:29;;;;;;;4.47;1.90;;;18.20;66.30;;;;;;5037367;28;20213;-81
2023/02/01 07:22:57;;;;;;;2.72;2.03;;;18.20;66.40;;;;;;5037400;28;20218;-81
2023/02/01 07:25:24;;;;;;;3.35;2.00;;;18.20;66.50;;;;;;5038724;28;20624;-79
2023/02/01 07:27:50;;;;;;;3.55;1.92;;;18.20;66.50;;;;;;5040830;28;20677;-79
2023/02/01 07:30:18;;;;;;;2.28;1.67;;;18.30;66.60;;;;;;5040792;28;20732;-78
2023/02/01 07:32:46;;;;;;;2.85;1.70;;;18.30;66.60;;;;;;5040234;28;20667;-80
2023/02/01 07:35:13;;;;;;;2.83;2.17;;;18.30;66.60;;;;;;5039950;28;20200;-79
2023/02/01 07:37:40;;;;;;;3.13;2.05;;;18.30;66.60;;;;;;5039741;28;20209;-82
2023/02/01 07:40:08;;;;;;;2.60;2.10;;;18.30;66.50;;;;;;5040681;28;20210;-79
2023/02/01 07:42:35;;;;;;;2.22;1.80;;;18.30;66.50;;;;;;5038722;28;20211;-81
2023/02/01 07:45:02;;;;;;;2.20;1.80;;;18.30;66.50;;;;;;5037640;28;20294;-81
2023/02/01 07:47:29;;;;;;;2.45;2.08;;;18.40;66.60;;;;;;5040456;28;20199;-81
2023/02/01 07:49:57;;;;;;;2.30;1.85;;;18.40;66.50;;;;;;5038397;28;20257;-80
2023/02/01 07:52:24;;;;;;;2.30;2.10;;;18.40;66.50;;;;;;5038446;28;20223;-81
2023/02/01 07:54:50;;;;;;;1.77;1.38;;;18.40;66.50;;;;;;5038709;28;20215;-81
2023/02/01 07:57:17;;;;;;;2.60;1.42;;;18.40;66.50;;;;;;5039457;28;20199;-81
2023/02/01 08:02:25;;;;;;;1.92;1.38;;;18.40;66.50;;;;;;5037361;28;20206;-81
2023/02/01 08:04:52;;;;;;;2.25;1.88;;;18.50;66.50;;;;;;5038768;28;20724;-82
2023/02/01 08:07:20;;;;;;;2.55;1.80;;;18.50;66.50;;;;;;5039421;28;20210;-79
2023/02/01 08:09:46;;;;;;;1.92;1.60;;;18.50;66.50;;;;;;5036027;28;20286;-80
2023/02/01 08:12:13;;;;;;;2.42;1.40;;;18.50;66.50;;;;;;5039154;28;20571;-81
2023/02/01 08:14:40;;;;;;;2.10;1.55;;;18.50;66.50;;;;;;5039173;28;20196;-82
2023/02/01 08:17:07;;;;;;;2.90;1.67;;;18.50;66.40;;;;;;5039257;28;20195;-78
2023/02/01 08:19:34;;;;;;;2.00;1.60;;;18.50;67.20;;;;;;5036824;28;20188;-79
2023/02/01 08:22:05;;;;;;;2.97;1.63;;;18.50;66.30;;;;;;5038482;28;20584;-82
2023/02/01 08:24:37;;;;;;;1.75;1.52;;;18.50;66.40;;;;;;5038127;28;20298;-81
2023/02/01 08:27:04;;;;;;;2.13;1.83;;;18.60;66.40;;;;;;5039581;28;20207;-80
2023/02/01 08:29:31;;;;;;;1.60;1.30;;;18.60;66.40;;;;;;5037630;28;20207;-81
2023/02/01 08:31:58;;;;;;;2.15;1.77;;;18.60;66.30;;;;;;5037715;28;20205;-81
2023/02/01 08:34:24;;;;;;;1.67;1.55;;;18.60;66.30;;;;;;5040345;28;20581;-81
2023/02/01 08:36:58;;;;;;;4.32;1.70;;;18.60;66.20;;;;;;5036953;28;20208;-77
2023/02/01 08:39:24;;;;;;;1.85;1.60;;;18.60;66.20;;;;;;5040326;28;20191;-78
2023/02/01 08:44:33;;;;;;;2.35;1.65;;;18.60;66.20;;;;;;5036892;28;20500;-76
2023/02/01 08:47:00;;;;;;;2.42;1.77;;;18.60;66.20;;;;;;5039918;28;20226;-78
2023/02/01 08:49:27;;;;;;;2.17;1.95;;;18.60;66.30;;;;;;5038630;28;20583;-77
2023/02/01 08:51:54;;;;;;;3.55;1.90;;;18.60;66.50;;;;;;5038320;28;20224;-76
2023/02/01 08:54:21;;;;;;;6.13;1.58;;;18.70;66.80;;;;;;5036975;28;20200;-77
2023/02/01 08:56:48;;;;;;;8.45;1.85;;;18.70;66.80;;;;;;5036096;28;20214;-79
2023/02/01 08:59:16;;;;;;;3.00;1.42;;;18.70;67.10;;;;;;5042540;28;20608;-76
2023/02/01 09:01:43;;;;;;;2.65;1.58;;;18.80;67.40;;;;;;5037267;28;22581;-76
2023/02/01 09:04:09;;;;;;;2.38;1.52;;;18.70;66.40;;;;;;5036041;28;20634;-76
2023/02/01 09:06:36;;;;;;;3.30;2.10;;;18.60;66.70;;;;;;5037581;28;20199;-76
2023/02/01 09:09:03;;;;;;;3.22;1.95;;;18.70;66.80;;;;;;5036948;28;20214;-77
2023/02/01 09:11:30;;;;;;;3.88;1.80;;;18.70;66.90;;;;;;5035196;28;20291;-76
2023/02/01 09:13:57;;;;;;;3.35;2.10;;;18.70;66.80;;;;;;5037826;28;20200;-77
2023/02/01 09:16:25;;;;;;;2.42;1.80;;;18.70;66.70;;;;;;5034532;28;20619;-77
2023/02/01 09:18:52;;;;;;;3.35;2.40;;;18.80;66.80;;;;;;5036356;28;20207;-76
2023/02/01 09:21:18;;;;;;;4.60;2.10;;;18.80;66.80;;;;;;5037295;28;20549;-78
2023/02/01 09:23:48;;;;;;;2.45;1.80;;;18.80;66.80;;;;;;5033228;28;20216;-77
2023/02/01 09:26:15;;;;;;;2.85;2.00;;;18.80;66.80;;;;;;5037588;28;20659;-76
2023/02/01 09:28:42;;;;;;;2.13;1.55;;;18.80;66.80;;;;;;5038866;28;20219;-77
2023/02/01 09:31:09;;;;;;;2.95;1.70;;;18.80;66.80;;;;;;5034515;28;20200;-77
2023/02/01 09:33:37;;;;;;;3.17;1.80;;;18.80;66.80;;;;;;5038042;28;20575;-77
2023/02/01 09:36:05;;;;;;;1.63;1.33;;;18.90;66.80;;;;;;5036884;28;20674;-77
2023/02/01 09:38:32;;;;;;;2.70;1.65;;;18.90;66.80;;;;;;5036605;28;20199;-77
2023/02/01 09:41:00;;;;;;;6.15;2.33;;;18.90;66.80;;;;;;5035871;28;20207;-77
2023/02/01 09:43:40;;;;;;;4.35;1.42;;;18.90;66.70;;;;;;5038303;28;20207;-77
2023/02/01 09:46:22;;;;;;;2.45;1.30;;;18.90;66.80;;;;;;5037160;28;20495;-77
2023/02/01 09:48:59;;;;;;;3.40;1.80;;;18.90;66.70;;;;;;5035843;28;20704;-76
2023/02/01 09:51:31;;;;;;;2.78;2.15;;;18.90;66.70;;;;;;5034914;28;20571;-77
2023/02/01 09:54:04;;;;;;;2.22;1.70;;;18.90;66.60;;;;;;5035451;28;20722;-76
2023/02/01 09:56:37;;;;;;;2.78;2.00;;;18.90;66.60;;;;;;5035994;28;20619;-76
2023/02/01 09:59:16;;;;;;;2.03;1.60;;;18.90;66.60;;;;;;5036135;28;20769;-77
2023/02/01 10:01:43;;;;;;;2.65;1.40;;;19.00;66.70;;;;;;5033528;28;20209;-77
2023/02/01 10:04:14;;;;;;;2.47;1.70;;;19.00;66.70;;;;;;5034755;28;20219;-77
2023/02/01 10:06:51;;;;;;;2.22;1.60;;;19.00;66.60;;;;;;5037401;28;20222;-77
2023/02/01 10:09:40;;;;;;;1.95;1.50;;;19.00;66.60;;;;;;5035631;28;20646;-77
2023/02/01 10:12:45;;;;;;;2.58;1.80;;;19.00;66.60;;;;;;5040286;28;20553;-76
2023/02/01 10:15:23;;;;;;;2.88;1.70;;;19.00;66.50;;;;;;5038429;28;20214;-81
2023/02/01 10:18:21;;;;;;;16.92;2.13;;;19.00;66.70;;;;;;5036201;28;20206;-75
2023/02/01 10:21:03;;;;;;;10.45;2.00;;;19.00;66.80;;;;;;5035218;28;20220;-77
2023/02/01 10:24:04;;;;;;;4.80;2.35;;;19.00;67.10;;;;;;5036608;28;20200;-76
2023/02/01 10:26:36;;;;;;;3.88;1.40;;;19.10;67.30;;;;;;5007995;28;20202;-83
2023/02/01 10:29:09;;;;;;;5.47;1.65;;;19.10;67.30;;;;;;5046813;28;20214;-84
2023/02/01 10:31:38;;;;;;;6.13;3.03;;;19.10;67.40;;;;;;5043403;28;20204;-83
2023/02/01 10:34:18;;;;;;;6.53;2.10;;;19.20;67.70;;;;;;5044756;28;20197;-83
2023/02/01 10:36:54;;;;;;;2.38;1.70;;;19.20;67.90;;;;;;5039639;28;20204;-84
2023/02/01 10:39:21;;;;;;;3.13;1.77;;;19.20;68.10;;;;;;5039048;28;20207;-79
2023/02/01 10:41:48;;;;;;;2.83;1.40;;;19.30;68.40;;;;;;5038090;28;20211;-81
2023/02/01 10:44:17;;;;;;;6.60;1.98;;;19.30;68.50;;;;;;5036237;28;20219;-78
2023/02/01 10:46:44;;;;;;;4.40;2.17;;;19.40;68.70;;;;;;5039989;28;20224;-79
2023/02/01 10:49:18;;;;;;;5.60;2.03;;;19.40;68.70;;;;;;5040835;28;20207;-81
2023/02/01 10:51:50;;;;;;;2.95;1.77;;;19.40;68.80;;;;;;5041066;28;20230;-81
2023/02/01 10:54:20;;;;;;;6.93;1.65;;;19.40;68.90;;;;;;5039240;28;20194;-80
2023/02/01 10:56:48;;;;;;;2.50;1.50;;;19.40;69.20;;;;;;5035714;28;20675;-80
2023/02/01 10:59:20;;;;;;;3.08;1.67;;;19.40;69.20;;;;;;5034322;28;20212;-81
2023/02/01 11:01:50;;;;;;;3.70;1.52;;;19.50;69.50;;;;;;5037067;28;20208;-87
2023/02/01 11:04:19;;;;;;;5.93;1.77;;;19.50;69.50;;;;;;5038986;28;20219;-82
2023/02/01 11:06:49;;;;;;;4.32;1.70;;;19.50;69.50;;;;;;5038105;28;20201;-82
2023/02/01 11:09:23;;;;;;;3.63;1.65;;;19.50;69.50;;;;;;5036214;28;20213;-85
2023/02/01 11:12:00;;;;;;;1.70;1.35;;;19.60;69.70;;;;;;5036808;28;20221;-80
2023/02/01 11:14:39;;;;;;;6.82;1.60;;;19.60;69.50;;;;;;5040869;28;20196;-79
2023/02/01 11:17:26;;;;;;;4.03;2.03;;;19.60;69.50;;;;;;5036644;28;20483;-82
2023/02/01 11:19:59;;;;;;;2.78;1.48;;;19.60;69.60;;;;;;5037964;28;20220;-82
2023/02/01 11:22:29;;;;;;;2.95;1.85;;;19.60;69.50;;;;;;5040799;28;20200;-82
2023/02/01 11:24:56;;;;;;;4.47;1.40;;;19.60;69.40;;;;;;5039843;28;20311;-81
2023/02/01 11:27:26;;;;;;;3.50;2.28;;;19.60;70.20;;;;;;5035934;28;20211;-81
2023/02/01 11:29:56;;;;;;;7.70;2.92;;;19.50;67.50;;;;;;5046343;28;20209;-81
2023/02/01 11:32:24;;;;;;;7.30;2.53;;;19.30;65.00;;;;;;5039006;28;20209;-80
2023/02/01 11:34:54;;;;;;;6.85;2.85;;;19.00;62.60;;;;;;5041842;28;20223;-80
2023/02/01 11:37:25;;;;;;;12.57;5.00;;;18.80;60.20;;;;;;5041341;28;20222;-80
2023/02/01 11:39:58;;;;;;;11.82;3.97;;;18.70;60.20;;;;;;5038013;28;20192;-80
2023/02/01 11:42:25;;;;;;;6.93;3.35;;;18.70;60.00;;;;;;5037898;28;20207;-79
2023/02/01 11:45:18;;;;;;;10.00;3.00;;;18.60;59.70;;;;;;5039671;28;20219;-83
2023/02/01 11:47:45;;;;;;;12.93;3.60;;;18.80;60.70;;;;;;5041436;28;20200;-80
2023/02/01 11:50:16;;;;;;;8.60;2.40;;;19.00;61.40;;;;;;5042203;28;20562;-80
2023/02/01 11:52:55;;;;;;;5.60;2.30;;;19.20;61.80;;;;;;5040811;28;20224;-80
2023/02/01 11:55:43;;;;;;;5.25;2.22;;;19.30;62.30;;;;;;5045563;28;20207;-81
2023/02/01 11:58:31;;;;;;;7.70;2.70;;;19.40;62.70;;;;;;5040314;28;20980;-81
2023/02/01 12:01:15;;;;;;;6.63;2.50;;;19.40;62.90;;;;;;5038176;28;20967;-81
2023/02/01 12:04:05;;;;;;;6.93;2.50;;;19.50;63.30;;;;;;5045757;28;20210;-80
2023/02/01 12:06:44;;;;;;;5.50;2.65;;;19.50;63.40;;;;;;5045572;28;20323;-82
2023/02/01 12:09:28;;;;;;;5.35;2.67;;;19.60;63.70;;;;;;5042553;28;20203;-81
2023/02/01 12:12:04;;;;;;;3.47;1.63;;;19.60;63.90;;;;;;5042480;28;20897;-79
2023/02/01 12:14:46;;;;;;;6.82;3.05;;;19.70;64.10;;;;;;5049004;28;20629;-79
2023/02/01 12:17:37;;;;;;;4.28;2.00;;;19.70;64.30;;;;;;5045468;28;20863;-81
2023/02/01 12:20:22;;;;;;;4.65;2.33;;;19.70;64.40;;;;;;5046027;28;20195;-79
2023/02/01 12:23:03;;;;;;;4.03;1.90;;;19.70;64.60;;;;;;5044495;28;20201;-80
2023/02/01 12:25:44;;;;;;;4.70;2.42;;;19.80;64.80;;;;;;5047315;28;20225;-81
2023/02/01 12:28:47;;;;;;;4.95;2.70;;;19.80;64.90;;;;;;5047212;28;20216;-83
2023/02/01 12:31:35;;;;;;;5.80;1.90;;;19.80;65.00;;;;;;5035661;28;20206;-82
2023/02/01 12:34:34;;;;;;;3.28;1.95;;;19.80;65.10;;;;;;5043176;28;20205;-81
2023/02/01 12:37:10;;;;;;;4.50;1.90;;;19.90;65.40;;;;;;5046815;28;20659;-82
2023/02/01 12:39:41;;;;;;;2.95;1.75;;;19.90;65.40;;;;;;5043022;28;20201;-81
2023/02/01 12:42:15;;;;;;;2.60;1.63;;;19.90;65.50;;;;;;5044847;28;20386;-81
2023/02/01 12:44:50;;;;;;;9.05;2.00;;;19.90;65.50;;;;;;5049342;28;20259;-82
2023/02/01 12:47:23;;;;;;;5.35;2.00;;;19.90;65.60;;;;;;5044867;28;20215;-78
2023/02/01 12:49:56;;;;;;;3.72;1.60;;;19.90;66.10;;;;;;5041726;28;20214;-80
2023/02/01 12:52:34;;;;;;;5.13;1.77;;;19.90;66.00;;;;;;5043486;28;20341;-80
2023/02/01 12:55:11;;;;;;;3.45;1.52;;;19.90;66.10;;;;;;5042810;28;20213;-82
2023/02/01 12:57:41;;;;;;;4.88;2.25;;;19.90;66.40;;;;;;5045921;28;20207;-82
2023/02/01 13:00:21;;;;;;;4.78;1.75;;;20.00;66.50;;;;;;5046231;28;20640;-82
2023/02/01 13:02:56;;;;;;;3.97;1.77;;;20.00;66.50;;;;;;5049554;28;20235;-82
2023/02/01 13:05:29;;;;;;;6.80;2.05;;;20.00;66.50;;;;;;5046281;28;20270;-82
2023/02/01 13:08:00;;;;;;;3.58;1.90;;;20.00;66.50;;;;;;5044795;28;20205;-81
2023/02/01 13:10:34;;;;;;;3.42;1.80;;;20.00;66.50;;;;;;5040922;28;20209;-82
2023/02/01 13:13:12;;;;;;;2.53;1.30;;;20.10;66.70;;;;;;5040829;28;20211;-83
2023/02/01 13:15:43;;;;;;;2.20;1.20;;;20.10;66.70;;;;;;5038970;28;20193;-81
2023/02/01 13:18:16;;;;;;;3.92;1.60;;;20.10;66.70;;;;;;5040332;28;20201;-83
2023/02/01 13:20:48;;;;;;;3.55;1.65;;;20.10;66.70;;;;;;5040469;28;20449;-83
2023/02/01 13:23:23;;;;;;;2.03;1.30;;;20.10;66.80;;;;;;5039013;28;20215;-81
2023/02/01 13:25:51;;;;;;;2.97;1.80;;;20.10;66.70;;;;;;5037809;28;20279;-81
2023/02/01 13:28:25;;;;;;;2.58;1.65;;;20.10;66.50;;;;;;5038150;28;20214;-81